DNBE

Benin Airport

Benin, Nigeria
TAF DNBE 190945Z 1912/2018 23010KT 9999 BKN012 TEMPO 1912/1918 BKN012 FEW020CB PROB30 1914/1918 5000 -TSRA BKN009 FEW019CB BECMG 1919/1921 VRB02KT SCT009
Issued Valid From Valid To
Sep-19 @ 09:45 UTC
(13 hours ago)
Sep-19 @ 12:00 UTC
(11 hours ago)
Sep-20 @ 18:00 UTC
(in 19 hours)
Expired Click to View Sep-19 @ 12:00 to Sep-19 @ 19:00
TAF DNBE 190945Z 1912/2018 23010KT 9999 BKN012
Wind Visibility Clouds
230° at 10 knots 10,000+ meters
  • Broken at 1,200' AGL
Expired Click to View Sep-19 @ 12:00 to Sep-19 @ 18:00
TEMPO 1912/1918 BKN012 FEW020CB
Clouds
  • Broken at 1,200' AGL
  • Few at 2,000' AGL
Expired Click to View Sep-19 @ 14:00 to Sep-19 @ 18:00
PROB30 1914/1918 5000 -TSRA BKN009 FEW019CB
Visibility Clouds Conditions
5,005 meters
  • Broken at 900' AGL
  • Few at 1,900' AGL
  • Light Thunderstorm
  • Light Rain
Becoming Sep-19 @ 19:00 to Sep-20 @ 18:00
BECMG 1919/1921 VRB02KT SCT009
Wind Visibility Clouds
Variable at 2 knots 10,000+ meters
  • Scattered at 900' AGL
TAF DNBE 190945Z 1912/2018 23010KT 9999 BKN012 TEMPO 1912/1918 BKN012 FEW020CB PROB30 1914/1918 5000 -TSRA BKN009 FEW019CB BECMG 1919/1921 VRB02KT SCT009
Issued Sep-19 @ 09:45 UTC
(13 hours ago)
Valid From Sep-19 @ 12:00 UTC
(11 hours ago)
Valid To Sep-20 @ 18:00 UTC
(in 19 hours)
Sep-19 @ 12:00 - Sep-19 @ 19:00
Wind Visibility
230° at 10 knots 10,000+ meters
Clouds
  • Broken at 1,200' AGL
Sep-19 @ 12:00 - Sep-19 @ 18:00
Clouds
  • Broken at 1,200' AGL
  • Few at 2,000' AGL
Sep-19 @ 14:00 - Sep-19 @ 18:00
Clouds
  • Broken at 900' AGL
  • Few at 1,900' AGL
Conditions
  • Light Thunderstorm
  • Light Rain
Becoming Sep-19 @ 19:00 - Sep-20 @ 18:00
Wind Visibility
Variable at 2 knots 10,000+ meters
Clouds
  • Scattered at 900' AGL